createdAt,value
2018-02-17T00:00:37.867Z,1.25
2018-02-17T00:03:05.278Z,1.29
2018-02-17T00:05:33.064Z,1.33
2018-02-17T00:08:00.464Z,1.42
2018-02-17T00:10:27.889Z,1.39
2018-02-17T00:12:55.302Z,1.25
2018-02-17T00:15:22.713Z,1.17
2018-02-17T00:17:50.116Z,1.12
2018-02-17T00:20:17.534Z,1.03
2018-02-17T00:22:49.775Z,1.13
2018-02-17T00:25:17.185Z,1.08
2018-02-17T00:27:44.593Z,0.95
2018-02-17T00:30:11.991Z,1.10
2018-02-17T00:32:39.417Z,1.34
2018-02-17T00:35:06.822Z,1.28
2018-02-17T00:37:34.238Z,0.72
2018-02-17T00:40:01.646Z,0.38
2018-02-17T00:42:29.063Z,0.32
2018-02-17T00:44:56.505Z,0.31
2018-02-17T00:47:23.888Z,0.32
2018-02-17T00:49:51.288Z,0.30
2018-02-17T00:52:18.709Z,0.41
2018-02-17T00:54:46.125Z,0.68
2018-02-17T00:57:13.542Z,0.81
2018-02-17T00:59:40.951Z,0.79
2018-02-17T01:02:08.366Z,0.73
2018-02-17T01:04:35.773Z,0.70
2018-02-17T01:07:03.195Z,0.84
2018-02-17T01:09:30.605Z,0.99
2018-02-17T01:11:58.025Z,0.86
2018-02-17T01:14:25.426Z,0.64
2018-02-17T01:16:53.726Z,0.63
2018-02-17T01:19:21.137Z,0.61
2018-02-17T01:21:48.554Z,0.60
2018-02-17T01:24:15.961Z,0.57
2018-02-17T01:26:43.377Z,0.46
2018-02-17T01:29:10.797Z,0.38
2018-02-17T01:31:38.204Z,0.43
2018-02-17T01:34:05.613Z,0.42
2018-02-17T01:36:33.037Z,0.34
2018-02-17T01:39:00.442Z,0.34
2018-02-17T01:41:27.858Z,0.39
2018-02-17T01:43:55.261Z,0.36
2018-02-17T01:46:22.665Z,0.38
2018-02-17T01:48:50.125Z,0.28
2018-02-17T01:51:17.529Z,0.27
2018-02-17T01:53:44.950Z,0.31
2018-02-17T01:56:12.352Z,0.32
2018-02-17T01:58:39.769Z,0.26
2018-02-17T02:01:07.173Z,0.28
2018-02-17T02:03:34.585Z,0.29
2018-02-17T02:06:01.989Z,0.19
2018-02-17T02:08:29.408Z,0.41
2018-02-17T02:10:56.821Z,0.40
2018-02-17T02:13:25.280Z,0.24
2018-02-17T02:15:52.688Z,0.51
2018-02-17T02:18:20.106Z,0.43
2018-02-17T02:20:47.509Z,0.78
2018-02-17T02:23:14.933Z,0.69
2018-02-17T02:25:42.329Z,0.67
2018-02-17T02:28:09.745Z,0.69
2018-02-17T02:30:37.153Z,0.97
2018-02-17T02:33:04.589Z,1.17
2018-02-17T02:35:31.981Z,1.14
2018-02-17T02:37:59.401Z,0.92
2018-02-17T02:40:26.819Z,0.48
2018-02-17T02:42:54.225Z,0.18
2018-02-17T02:45:21.630Z,0.08
2018-02-17T02:47:49.041Z,0.17
2018-02-17T02:50:16.463Z,0.19
2018-02-17T02:52:43.861Z,0.07
2018-02-17T02:55:11.922Z,0.23
2018-02-17T02:57:39.329Z,0.41
2018-02-17T03:00:06.738Z,0.33
2018-02-17T03:02:34.144Z,0.31
2018-02-17T03:05:01.561Z,0.38
2018-02-17T03:07:28.984Z,0.27
2018-02-17T03:09:56.904Z,0.25
2018-02-17T03:12:24.315Z,0.18
2018-02-17T03:14:51.727Z,0.20
2018-02-17T03:17:19.136Z,0.16
2018-02-17T03:19:46.544Z,0.16
2018-02-17T03:22:13.956Z,0.12
2018-02-17T03:24:41.380Z,0.07
2018-02-17T03:27:08.798Z,-0.01
2018-02-17T03:29:36.210Z,0.02
2018-02-17T03:32:03.621Z,0.04
2018-02-17T03:34:31.035Z,0.04
2018-02-17T03:36:58.437Z,0.04
2018-02-17T03:39:25.861Z,0.05
2018-02-17T03:41:53.266Z,0.08
2018-02-17T03:44:20.721Z,0.06
2018-02-17T03:46:48.113Z,0.00
2018-02-17T03:49:15.537Z,-0.02
2018-02-17T03:51:42.956Z,-0.04
2018-02-17T03:54:10.377Z,-0.05
2018-02-17T03:56:37.803Z,-0.04
2018-02-17T03:59:05.226Z,-0.10
2018-02-17T04:01:32.629Z,-0.05
2018-02-17T04:04:00.055Z,0.08
2018-02-17T04:06:27.469Z,0.10
2018-02-17T04:08:54.884Z,0.07
2018-02-17T04:11:22.293Z,0.09
2018-02-17T04:13:49.740Z,0.10
2018-02-17T04:16:17.142Z,0.10
2018-02-17T04:18:44.555Z,0.14
2018-02-17T04:21:11.962Z,0.18
2018-02-17T04:23:39.368Z,0.22
2018-02-17T04:26:06.782Z,0.23
2018-02-17T04:28:34.188Z,0.24
2018-02-17T04:31:01.606Z,0.28
2018-02-17T04:33:29.536Z,0.24
2018-02-17T04:35:56.954Z,0.26
2018-02-17T04:38:24.371Z,0.25
2018-02-17T04:40:55.578Z,0.24
2018-02-17T04:43:28.507Z,0.33
2018-02-17T04:45:58.186Z,0.26
2018-02-17T04:48:27.389Z,0.35
2018-02-17T04:50:55.584Z,0.46
2018-02-17T04:53:28.681Z,0.46
2018-02-17T04:59:00.474Z,0.70
2018-02-17T05:04:31.200Z,0.95
2018-02-17T05:07:15.461Z,0.76
2018-02-17T05:09:42.877Z,0.49
2018-02-17T05:12:10.297Z,0.51
2018-02-17T05:14:38.597Z,0.44
2018-02-17T05:20:09.024Z,0.54
2018-02-17T05:25:40.507Z,0.83
2018-02-17T05:31:13.706Z,0.75
2018-02-17T05:33:49.807Z,0.69
2018-02-17T05:36:30.013Z,0.63
2018-02-17T05:38:59.362Z,0.69
2018-02-17T05:44:52.387Z,0.63
2018-02-17T05:47:19.808Z,0.60
2018-02-17T05:49:48.033Z,0.48
2018-02-17T05:52:15.441Z,0.53
2018-02-17T05:54:42.849Z,0.50
2018-02-17T05:57:10.262Z,0.42
2018-02-17T05:59:37.675Z,0.43
2018-02-17T06:02:05.101Z,0.44
2018-02-17T06:04:32.534Z,0.42
2018-02-17T06:06:59.930Z,0.41
2018-02-17T06:09:27.354Z,0.34
2018-02-17T06:11:54.766Z,0.34
2018-02-17T06:14:22.185Z,0.33
2018-02-17T06:16:49.601Z,0.27
2018-02-17T06:19:17.016Z,0.22
2018-02-17T06:21:44.428Z,0.24
2018-02-17T06:24:11.841Z,0.26
2018-02-17T06:26:39.250Z,0.27
2018-02-17T06:29:06.665Z,0.29
2018-02-17T06:31:34.091Z,0.34
2018-02-17T06:34:01.689Z,0.36
2018-02-17T06:36:29.095Z,0.42
2018-02-17T06:38:56.517Z,0.44
2018-02-17T06:41:23.921Z,0.48
2018-02-17T06:43:51.334Z,0.49
2018-02-17T06:46:18.739Z,0.61
2018-02-17T06:48:46.155Z,0.59
2018-02-17T06:51:13.568Z,0.59
2018-02-17T06:53:40.984Z,0.66
2018-02-17T06:56:08.390Z,0.85
2018-02-17T06:58:35.806Z,1.05
2018-02-17T07:01:03.212Z,1.02
2018-02-17T07:03:30.638Z,1.05
2018-02-17T07:05:58.039Z,1.18
2018-02-17T07:08:25.474Z,1.07
2018-02-17T07:10:53.793Z,1.10
2018-02-17T07:13:21.205Z,1.31
2018-02-17T07:15:48.618Z,1.47
2018-02-17T07:18:16.025Z,1.33
2018-02-17T07:20:43.448Z,1.16
2018-02-17T07:23:10.849Z,0.99
2018-02-17T07:25:38.263Z,0.97
2018-02-17T07:28:05.679Z,1.00
2018-02-17T07:30:33.102Z,0.98
2018-02-17T07:33:00.506Z,1.02
2018-02-17T07:35:27.938Z,0.96
2018-02-17T07:37:55.341Z,1.04
2018-02-17T07:40:22.792Z,0.98
2018-02-17T07:42:50.182Z,0.99
2018-02-17T07:45:17.588Z,1.10
2018-02-17T07:47:44.988Z,1.09
2018-02-17T07:50:12.406Z,1.16
2018-02-17T07:52:39.814Z,1.18
2018-02-17T07:55:07.236Z,1.23
2018-02-17T07:57:34.634Z,1.20
2018-02-17T08:00:02.074Z,1.25
2018-02-17T08:02:29.470Z,1.29
2018-02-17T08:04:56.895Z,1.29
2018-02-17T08:07:24.293Z,1.29
2018-02-17T08:09:51.713Z,1.30
2018-02-17T08:12:19.121Z,1.32
2018-02-17T08:14:46.539Z,1.40
2018-02-17T08:17:13.942Z,1.42
2018-02-17T08:19:41.353Z,1.43
2018-02-17T08:22:08.768Z,1.43
2018-02-17T08:24:36.200Z,1.43
2018-02-17T08:27:03.592Z,1.51
2018-02-17T08:29:30.994Z,1.55
2018-02-17T08:31:58.418Z,1.55
2018-02-17T08:34:25.842Z,1.57
2018-02-17T08:36:53.252Z,1.64
2018-02-17T08:39:20.684Z,1.66
2018-02-17T08:41:48.097Z,1.66
2018-02-17T08:44:15.505Z,1.72
2018-02-17T08:46:42.922Z,1.77
2018-02-17T08:49:10.330Z,1.82
2018-02-17T08:51:37.761Z,1.86
2018-02-17T08:54:08.031Z,1.83
2018-02-17T08:56:35.447Z,1.86
2018-02-17T08:59:02.850Z,1.93
2018-02-17T09:01:30.264Z,1.91
2018-02-17T09:03:57.680Z,1.98
2018-02-17T09:06:25.094Z,1.96
2018-02-17T09:08:52.503Z,2.06
2018-02-17T09:11:19.920Z,2.10
2018-02-17T09:13:47.325Z,1.96
2018-02-17T09:16:14.741Z,1.99
2018-02-17T09:18:42.158Z,2.10
2018-02-17T09:21:10.273Z,2.12
2018-02-17T09:23:37.693Z,2.17
2018-02-17T09:26:05.120Z,2.17
2018-02-17T09:28:32.516Z,2.17
2018-02-17T09:30:59.928Z,2.22
2018-02-17T09:33:27.344Z,2.18
2018-02-17T09:35:54.756Z,2.21
2018-02-17T09:38:22.190Z,2.25
2018-02-17T09:40:49.587Z,2.17
2018-02-17T09:43:17.001Z,2.25
2018-02-17T09:45:44.413Z,2.24
2018-02-17T09:48:11.829Z,2.27
2018-02-17T09:50:39.238Z,2.30
2018-02-17T09:53:06.658Z,2.26
2018-02-17T09:55:34.061Z,2.35
2018-02-17T09:58:01.492Z,2.34
2018-02-17T10:00:28.905Z,2.34
2018-02-17T10:02:56.317Z,2.34
2018-02-17T10:05:23.729Z,2.32
2018-02-17T10:07:51.141Z,2.26
2018-02-17T10:10:18.541Z,2.30
2018-02-17T10:12:45.957Z,2.31
2018-02-17T10:15:13.362Z,2.45
2018-02-17T10:17:40.779Z,2.38
2018-02-17T10:20:08.190Z,2.40
2018-02-17T10:22:35.593Z,2.33
2018-02-17T10:25:03.009Z,2.30
2018-02-17T10:27:30.425Z,2.34
2018-02-17T10:29:57.902Z,2.31
2018-02-17T10:32:25.255Z,2.31
2018-02-17T10:34:52.673Z,2.39
2018-02-17T10:37:20.077Z,2.39
2018-02-17T10:39:47.499Z,2.40
2018-02-17T10:42:14.909Z,2.42
2018-02-17T10:44:42.334Z,2.38
2018-02-17T10:47:09.737Z,2.42
2018-02-17T10:49:37.157Z,2.43
2018-02-17T10:52:04.561Z,2.44
2018-02-17T10:54:31.979Z,2.33
2018-02-17T10:56:59.396Z,2.21
2018-02-17T10:59:26.805Z,2.07
2018-02-17T11:01:54.218Z,1.95
2018-02-17T11:04:21.634Z,1.74
2018-02-17T11:06:49.041Z,1.58
2018-02-17T11:09:16.462Z,1.52
2018-02-17T11:11:43.866Z,1.45
2018-02-17T11:14:11.291Z,1.23
2018-02-17T11:16:38.698Z,1.09
2018-02-17T11:19:06.105Z,0.98
2018-02-17T11:21:33.519Z,0.94
2018-02-17T11:24:00.936Z,0.93
2018-02-17T11:26:28.341Z,0.94
2018-02-17T11:28:55.759Z,0.96
2018-02-17T11:31:23.156Z,0.86
2018-02-17T11:33:50.610Z,0.85
2018-02-17T11:36:18.021Z,0.85
2018-02-17T11:38:46.253Z,0.84
2018-02-17T11:41:13.669Z,0.85
2018-02-17T11:43:41.077Z,0.86
2018-02-17T11:46:08.551Z,0.84
2018-02-17T11:48:35.909Z,0.82
2018-02-17T11:51:03.321Z,0.81
2018-02-17T11:53:30.729Z,0.80
2018-02-17T11:55:58.142Z,0.79
2018-02-17T11:58:25.549Z,0.85
2018-02-17T12:00:52.975Z,0.81
2018-02-17T12:03:20.376Z,0.81
2018-02-17T12:05:47.789Z,0.86
2018-02-17T12:08:15.201Z,0.83
2018-02-17T12:10:42.615Z,0.90
2018-02-17T12:13:10.026Z,0.85
2018-02-17T12:15:37.445Z,0.85
2018-02-17T12:18:04.863Z,0.83
2018-02-17T12:20:32.295Z,0.85
2018-02-17T12:22:59.673Z,0.85
2018-02-17T12:25:27.089Z,0.88
2018-02-17T12:27:54.502Z,0.85
2018-02-17T12:30:21.917Z,0.86
2018-02-17T12:32:49.321Z,0.84
2018-02-17T12:35:16.745Z,0.89
2018-02-17T12:37:44.169Z,0.90
2018-02-17T12:40:11.573Z,0.91
2018-02-17T12:42:38.985Z,0.92
2018-02-17T12:45:06.442Z,0.89
2018-02-17T12:47:33.813Z,0.96
2018-02-17T12:50:01.221Z,0.96
2018-02-17T12:52:28.642Z,0.97
2018-02-17T12:54:56.043Z,0.97
2018-02-17T12:57:23.452Z,0.92
2018-02-17T12:59:50.865Z,0.96
2018-02-17T13:02:18.277Z,1.01
2018-02-17T13:04:46.335Z,0.97
2018-02-17T13:07:13.753Z,1.02
2018-02-17T13:09:41.168Z,0.99
2018-02-17T13:12:08.584Z,0.99
2018-02-17T13:14:36.617Z,1.05
2018-02-17T13:17:04.034Z,1.05
2018-02-17T13:19:31.455Z,1.07
2018-02-17T13:21:58.880Z,1.05
2018-02-17T13:24:26.334Z,1.00
2018-02-17T13:26:53.747Z,0.97
2018-02-17T13:29:21.377Z,1.02
2018-02-17T13:31:48.794Z,0.99
2018-02-17T13:34:16.208Z,0.99
2018-02-17T13:36:43.858Z,1.06
2018-02-17T13:39:11.265Z,1.08
2018-02-17T13:41:38.680Z,1.09
2018-02-17T13:44:06.085Z,1.03
2018-02-17T13:46:33.504Z,1.01
2018-02-17T13:49:00.908Z,1.02
2018-02-17T13:51:28.339Z,1.02
2018-02-17T13:53:55.737Z,1.05
2018-02-17T13:56:23.153Z,1.06
2018-02-17T13:58:50.580Z,1.03
2018-02-17T14:01:17.972Z,1.04
2018-02-17T14:03:45.387Z,1.11
2018-02-17T14:06:12.798Z,1.14
2018-02-17T14:08:40.197Z,1.12
2018-02-17T14:11:07.617Z,1.05
2018-02-17T14:13:35.028Z,0.99
2018-02-17T14:16:02.433Z,1.05
2018-02-17T14:18:29.854Z,1.04
2018-02-17T14:20:57.277Z,1.03
2018-02-17T14:23:24.698Z,1.02
2018-02-17T14:25:52.105Z,1.00
2018-02-17T14:28:19.526Z,1.08
2018-02-17T14:30:46.933Z,1.09
2018-02-17T14:33:14.353Z,1.09
2018-02-17T14:35:41.761Z,1.10
2018-02-17T14:38:09.183Z,1.12
2018-02-17T14:40:36.587Z,1.13
2018-02-17T14:43:04.011Z,1.15
2018-02-17T14:45:31.420Z,1.20
2018-02-17T14:47:58.840Z,1.14
2018-02-17T14:50:26.249Z,1.14
2018-02-17T14:52:54.004Z,1.19
2018-02-17T14:55:21.415Z,1.24
2018-02-17T14:57:48.821Z,1.12
2018-02-17T15:00:16.242Z,1.12
2018-02-17T15:02:43.658Z,1.15
2018-02-17T15:05:11.074Z,1.11
2018-02-17T15:07:38.484Z,1.11
2018-02-17T15:10:05.902Z,1.12
2018-02-17T15:12:33.311Z,1.12
2018-02-17T15:15:00.728Z,1.06
2018-02-17T15:17:28.129Z,1.06
2018-02-17T15:19:55.550Z,1.09
2018-02-17T15:22:22.960Z,0.95
2018-02-17T15:24:50.370Z,0.98
2018-02-17T15:27:17.773Z,0.92
2018-02-17T15:29:45.196Z,0.94
2018-02-17T15:32:12.592Z,0.89
2018-02-17T15:34:40.026Z,0.92
2018-02-17T15:37:07.439Z,0.87
2018-02-17T15:39:34.850Z,0.92
2018-02-17T15:42:02.257Z,0.88
2018-02-17T15:44:29.681Z,0.88
2018-02-17T15:46:57.086Z,0.86
2018-02-17T15:49:24.498Z,0.88
2018-02-17T15:51:51.913Z,0.90
2018-02-17T15:54:19.339Z,0.87
2018-02-17T15:56:46.745Z,0.85
2018-02-17T15:59:14.162Z,0.87
2018-02-17T16:01:41.560Z,0.82
2018-02-17T16:04:08.969Z,0.85
2018-02-17T16:06:36.385Z,0.85
2018-02-17T16:09:03.797Z,0.85
2018-02-17T16:11:31.247Z,0.87
2018-02-17T16:13:58.626Z,0.88
2018-02-17T16:16:26.441Z,0.87
2018-02-17T16:18:53.851Z,0.84
2018-02-17T16:21:21.268Z,0.83
2018-02-17T16:23:48.674Z,0.83
2018-02-17T16:26:16.095Z,0.87
2018-02-17T16:28:43.493Z,0.83
2018-02-17T16:31:10.918Z,0.80
2018-02-17T16:33:38.598Z,0.82
2018-02-17T16:36:06.005Z,0.81
2018-02-17T16:38:33.412Z,0.83
2018-02-17T16:41:00.837Z,0.82
2018-02-17T16:43:28.246Z,0.81
2018-02-17T16:45:55.661Z,0.82
2018-02-17T16:48:23.065Z,0.81
2018-02-17T16:50:50.576Z,0.82
2018-02-17T16:53:17.985Z,0.85
2018-02-17T16:55:45.403Z,0.89
2018-02-17T16:58:12.809Z,0.85
2018-02-17T17:00:40.221Z,0.83
2018-02-17T17:03:07.630Z,0.78
2018-02-17T17:05:35.046Z,0.78
2018-02-17T17:08:02.449Z,0.82
2018-02-17T17:10:29.872Z,0.82
2018-02-17T17:12:58.057Z,0.78
2018-02-17T17:15:25.469Z,0.78
2018-02-17T17:17:52.874Z,0.77
2018-02-17T17:20:20.313Z,0.78
2018-02-17T17:22:47.721Z,0.81
2018-02-17T17:25:15.129Z,0.82
2018-02-17T17:27:42.545Z,0.82
2018-02-17T17:30:09.977Z,0.80
2018-02-17T17:32:37.378Z,0.79
2018-02-17T17:35:04.906Z,0.85
2018-02-17T17:37:32.311Z,0.83
2018-02-17T17:39:59.722Z,0.84
2018-02-17T17:42:27.140Z,0.86
2018-02-17T17:44:54.549Z,0.86
2018-02-17T17:47:21.961Z,0.77
2018-02-17T17:49:49.362Z,0.79
2018-02-17T17:52:16.769Z,0.78
2018-02-17T17:54:44.189Z,0.81
2018-02-17T17:57:11.605Z,0.76
2018-02-17T17:59:39.014Z,0.84
2018-02-17T18:02:06.436Z,0.79
2018-02-17T18:04:33.839Z,0.80
2018-02-17T18:07:01.258Z,0.80
2018-02-17T18:09:28.662Z,0.79
2018-02-17T18:11:56.086Z,0.79
2018-02-17T18:14:23.494Z,0.79
2018-02-17T18:16:50.958Z,0.87
2018-02-17T18:19:18.366Z,0.88
2018-02-17T18:21:45.774Z,0.87
2018-02-17T18:24:13.182Z,0.85
2018-02-17T18:26:40.596Z,0.79
2018-02-17T18:29:08.013Z,0.80
2018-02-17T18:31:36.434Z,0.78
2018-02-17T18:34:03.840Z,0.87
2018-02-17T18:36:31.249Z,0.87
2018-02-17T18:38:58.674Z,0.83
2018-02-17T18:41:26.077Z,0.80
2018-02-17T18:43:53.490Z,0.79
2018-02-17T18:46:20.887Z,0.77
2018-02-17T18:48:48.304Z,0.78
2018-02-17T18:51:15.719Z,0.77
2018-02-17T18:53:43.172Z,0.78
2018-02-17T18:56:10.537Z,0.83
2018-02-17T18:58:37.955Z,0.76
2018-02-17T19:01:05.362Z,0.76
2018-02-17T19:03:32.786Z,0.77
2018-02-17T19:06:00.974Z,1.03
2018-02-17T19:08:29.060Z,1.24
2018-02-17T19:10:56.473Z,1.00
2018-02-17T19:13:23.897Z,1.03
2018-02-17T19:15:51.315Z,0.92
2018-02-17T19:18:18.725Z,0.91
2018-02-17T19:20:46.136Z,0.91
2018-02-17T19:23:13.561Z,1.22
2018-02-17T19:25:40.964Z,1.42
2018-02-17T19:28:08.797Z,1.34
2018-02-17T19:30:36.193Z,1.12
2018-02-17T19:33:03.630Z,1.23
2018-02-17T19:35:31.038Z,1.46
2018-02-17T19:37:58.455Z,1.27
2018-02-17T19:40:25.864Z,1.33
2018-02-17T19:42:53.275Z,1.46
2018-02-17T19:45:20.691Z,1.51
2018-02-17T19:47:48.104Z,1.61
2018-02-17T19:50:15.508Z,1.57
2018-02-17T19:52:42.914Z,1.35
2018-02-17T19:55:10.335Z,1.24
2018-02-17T19:57:37.748Z,1.12
2018-02-17T20:00:05.156Z,1.02
2018-02-17T20:02:32.561Z,0.89
2018-02-17T20:04:59.981Z,1.25
2018-02-17T20:07:27.396Z,1.47
2018-02-17T20:09:54.813Z,1.48
2018-02-17T20:12:22.213Z,1.27
2018-02-17T20:14:49.630Z,1.32
2018-02-17T20:17:17.040Z,1.45
2018-02-17T20:19:44.452Z,1.25
2018-02-17T20:22:11.858Z,1.07
2018-02-17T20:24:39.269Z,1.06
2018-02-17T20:27:06.677Z,0.98
2018-02-17T20:29:34.890Z,1.02
2018-02-17T20:32:02.298Z,1.37
2018-02-17T20:34:29.701Z,1.27
2018-02-17T20:36:57.111Z,1.50
2018-02-17T20:39:24.588Z,1.29
2018-02-17T20:41:52.001Z,1.50
2018-02-17T20:44:19.407Z,1.42
2018-02-17T20:46:46.808Z,1.29
2018-02-17T20:49:14.222Z,1.19
2018-02-17T20:51:41.629Z,1.25
2018-02-17T20:54:09.051Z,1.31
2018-02-17T20:56:36.673Z,1.28
2018-02-17T20:59:04.074Z,1.13
2018-02-17T21:01:31.486Z,1.17
2018-02-17T21:03:58.886Z,1.30
2018-02-17T21:06:26.298Z,1.40
2018-02-17T21:08:53.693Z,1.31
2018-02-17T21:11:21.220Z,1.08
2018-02-17T21:13:48.625Z,1.24
2018-02-17T21:16:16.038Z,1.15
2018-02-17T21:18:43.444Z,1.00
2018-02-17T21:21:10.854Z,0.99
2018-02-17T21:23:38.257Z,1.00
2018-02-17T21:26:05.672Z,1.02
2018-02-17T21:28:33.077Z,1.13
2018-02-17T21:31:00.488Z,0.98
2018-02-17T21:33:27.897Z,1.01
2018-02-17T21:35:55.310Z,0.96
2018-02-17T21:38:23.436Z,0.95
2018-02-17T21:40:50.845Z,1.24
2018-02-17T21:43:18.272Z,1.34
2018-02-17T21:45:45.684Z,1.45
2018-02-17T21:48:13.099Z,0.99
2018-02-17T21:50:40.937Z,0.88
2018-02-17T21:53:08.337Z,0.79
2018-02-17T21:55:35.752Z,0.76
2018-02-17T21:58:03.154Z,0.81
2018-02-17T22:02:40.036Z,1.09
2018-02-17T22:05:07.445Z,1.13
2018-02-17T22:07:34.858Z,1.00
2018-02-17T22:10:02.285Z,0.87
2018-02-17T22:12:30.631Z,1.11
2018-02-17T22:14:58.002Z,1.33
2018-02-17T22:17:25.409Z,1.18
2018-02-17T22:19:52.830Z,1.16
2018-02-17T22:22:20.246Z,0.93
2018-02-17T22:24:47.651Z,0.94
2018-02-17T22:27:15.074Z,0.87
2018-02-17T22:29:42.486Z,1.09
2018-02-17T22:32:09.897Z,1.20
2018-02-17T22:34:37.309Z,1.29
2018-02-17T22:37:04.726Z,0.98
2018-02-17T22:39:32.140Z,1.10
2018-02-17T22:42:00.178Z,1.11
2018-02-17T22:44:27.778Z,0.91
2018-02-17T22:46:55.189Z,1.01
2018-02-17T22:49:22.597Z,1.18
2018-02-17T22:51:50.009Z,0.98
2018-02-17T22:54:17.417Z,0.95
2018-02-17T22:56:44.830Z,1.06
2018-02-17T22:59:12.250Z,1.15
2018-02-17T23:01:39.662Z,1.05
2018-02-17T23:04:07.069Z,1.12
2018-02-17T23:06:34.540Z,0.92
2018-02-17T23:09:01.954Z,0.77
2018-02-17T23:11:29.371Z,1.03
2018-02-17T23:13:56.786Z,1.13
2018-02-17T23:16:24.208Z,1.01
2018-02-17T23:18:51.616Z,0.94
2018-02-17T23:21:19.019Z,1.18
2018-02-17T23:23:46.425Z,1.22
2018-02-17T23:26:13.829Z,1.18
2018-02-17T23:28:42.305Z,1.02
2018-02-17T23:31:09.714Z,1.19
2018-02-17T23:33:37.134Z,1.24
2018-02-17T23:36:04.533Z,1.26
2018-02-17T23:38:32.927Z,1.20
2018-02-17T23:41:00.333Z,1.21
2018-02-17T23:43:27.757Z,1.04
2018-02-17T23:45:55.157Z,0.91
2018-02-17T23:48:22.560Z,0.78
2018-02-17T23:50:49.976Z,0.75
2018-02-17T23:53:17.381Z,0.70
2018-02-17T23:55:44.793Z,0.65
2018-02-17T23:58:12.206Z,0.71
